sensor_id;sensor_type;location;lat;lon;timestamp;temperature;humidity
8043;DHT22;4064;48.132;11.366;2023-04-12T00:01:52;5.20;99.90
8043;DHT22;4064;48.132;11.366;2023-04-12T00:04:18;5.20;99.90
8043;DHT22;4064;48.132;11.366;2023-04-12T00:06:46;5.30;99.90
8043;DHT22;4064;48.132;11.366;2023-04-12T00:09:13;5.30;99.90
8043;DHT22;4064;48.132;11.366;2023-04-12T00:11:40;5.30;99.90
8043;DHT22;4064;48.132;11.366;2023-04-12T00:14:06;5.30;99.90
8043;DHT22;4064;48.132;11.366;2023-04-12T00:16:32;5.30;99.90
8043;DHT22;4064;48.132;11.366;2023-04-12T00:18:58;5.40;99.90
8043;DHT22;4064;48.132;11.366;2023-04-12T00:21:25;5.40;99.90
8043;DHT22;4064;48.132;11.366;2023-04-12T00:23:53;5.30;99.90
8043;DHT22;4064;48.132;11.366;2023-04-12T00:26:19;5.40;99.90
8043;DHT22;4064;48.132;11.366;2023-04-12T00:28:49;5.40;99.90
8043;DHT22;4064;48.132;11.366;2023-04-12T00:31:15;5.30;99.90
8043;DHT22;4064;48.132;11.366;2023-04-12T00:33:41;5.40;99.90
8043;DHT22;4064;48.132;11.366;2023-04-12T00:36:07;5.40;99.90
8043;DHT22;4064;48.132;11.366;2023-04-12T00:38:33;5.40;99.90
8043;DHT22;4064;48.132;11.366;2023-04-12T00:41:00;5.40;99.90
8043;DHT22;4064;48.132;11.366;2023-04-12T00:43:26;5.40;99.90
8043;DHT22;4064;48.132;11.366;2023-04-12T00:45:53;5.40;99.90
8043;DHT22;4064;48.132;11.366;2023-04-12T00:48:22;5.40;99.90
8043;DHT22;4064;48.132;11.366;2023-04-12T00:50:48;5.50;99.90
8043;DHT22;4064;48.132;11.366;2023-04-12T00:53:18;5.50;99.90
8043;DHT22;4064;48.132;11.366;2023-04-12T00:55:45;5.50;99.90
8043;DHT22;4064;48.132;11.366;2023-04-12T00:58:12;5.50;99.90
8043;DHT22;4064;48.132;11.366;2023-04-12T01:00:38;5.50;99.90
8043;DHT22;4064;48.132;11.366;2023-04-12T01:03:05;5.50;99.90
8043;DHT22;4064;48.132;11.366;2023-04-12T01:05:37;5.60;99.90
8043;DHT22;4064;48.132;11.366;2023-04-12T01:08:18;5.60;99.90
8043;DHT22;4064;48.132;11.366;2023-04-12T01:11:25;5.60;99.90
8043;DHT22;4064;48.132;11.366;2023-04-12T01:14:14;5.60;99.90
8043;DHT22;4064;48.132;11.366;2023-04-12T01:16:46;5.60;99.90
8043;DHT22;4064;48.132;11.366;2023-04-12T01:25:03;5.70;99.90
8043;DHT22;4064;48.132;11.366;2023-04-12T01:27:38;5.70;99.90
8043;DHT22;4064;48.132;11.366;2023-04-12T01:30:07;5.70;99.90
8043;DHT22;4064;48.132;11.366;2023-04-12T01:32:36;5.70;99.90
8043;DHT22;4064;48.132;11.366;2023-04-12T01:35:03;5.70;99.90
8043;DHT22;4064;48.132;11.366;2023-04-12T01:37:33;5.70;99.90
8043;DHT22;4064;48.132;11.366;2023-04-12T01:40:01;5.70;99.90
8043;DHT22;4064;48.132;11.366;2023-04-12T01:42:31;5.70;99.90
8043;DHT22;4064;48.132;11.366;2023-04-12T01:45:03;5.70;99.90
8043;DHT22;4064;48.132;11.366;2023-04-12T01:47:29;5.60;99.90
8043;DHT22;4064;48.132;11.366;2023-04-12T01:52:44;5.60;99.90
8043;DHT22;4064;48.132;11.366;2023-04-12T01:55:14;5.50;99.90
8043;DHT22;4064;48.132;11.366;2023-04-12T01:57:43;5.60;99.90
8043;DHT22;4064;48.132;11.366;2023-04-12T02:00:10;5.50;99.90
8043;DHT22;4064;48.132;11.366;2023-04-12T02:02:37;5.40;99.90
8043;DHT22;4064;48.132;11.366;2023-04-12T02:05:05;5.50;99.90
8043;DHT22;4064;48.132;11.366;2023-04-12T02:07:34;5.50;99.90
8043;DHT22;4064;48.132;11.366;2023-04-12T02:10:00;5.50;99.90
8043;DHT22;4064;48.132;11.366;2023-04-12T02:12:26;5.40;99.90
8043;DHT22;4064;48.132;11.366;2023-04-12T02:14:52;5.40;99.90
8043;DHT22;4064;48.132;11.366;2023-04-12T02:17:18;5.30;99.90
8043;DHT22;4064;48.132;11.366;2023-04-12T02:19:44;5.30;99.90
8043;DHT22;4064;48.132;11.366;2023-04-12T02:22:11;5.30;99.90
8043;DHT22;4064;48.132;11.366;2023-04-12T02:24:38;5.30;99.90
8043;DHT22;4064;48.132;11.366;2023-04-12T02:27:04;5.30;99.90
8043;DHT22;4064;48.132;11.366;2023-04-12T02:29:30;5.30;99.90
8043;DHT22;4064;48.132;11.366;2023-04-12T02:31:56;5.20;99.90
8043;DHT22;4064;48.132;11.366;2023-04-12T02:34:22;5.20;99.90
8043;DHT22;4064;48.132;11.366;2023-04-12T02:36:48;5.20;99.90
8043;DHT22;4064;48.132;11.366;2023-04-12T02:39:14;5.10;99.90
8043;DHT22;4064;48.132;11.366;2023-04-12T02:41:43;5.20;99.90
8043;DHT22;4064;48.132;11.366;2023-04-12T02:44:10;5.10;99.90
8043;DHT22;4064;48.132;11.366;2023-04-12T02:46:36;5.10;99.90
8043;DHT22;4064;48.132;11.366;2023-04-12T02:49:02;5.10;99.90
8043;DHT22;4064;48.132;11.366;2023-04-12T02:51:27;5.10;99.90
8043;DHT22;4064;48.132;11.366;2023-04-12T02:53:53;5.10;99.90
8043;DHT22;4064;48.132;11.366;2023-04-12T02:56:19;5.10;99.90
8043;DHT22;4064;48.132;11.366;2023-04-12T02:58:46;5.00;99.90
8043;DHT22;4064;48.132;11.366;2023-04-12T03:01:12;5.00;99.90
8043;DHT22;4064;48.132;11.366;2023-04-12T03:03:38;5.00;99.90
8043;DHT22;4064;48.132;11.366;2023-04-12T03:06:05;5.00;99.90
8043;DHT22;4064;48.132;11.366;2023-04-12T03:08:33;5.00;99.90
8043;DHT22;4064;48.132;11.366;2023-04-12T03:11:00;5.00;99.90
8043;DHT22;4064;48.132;11.366;2023-04-12T03:13:26;5.00;99.90
8043;DHT22;4064;48.132;11.366;2023-04-12T03:15:57;5.00;99.90
8043;DHT22;4064;48.132;11.366;2023-04-12T03:18:23;5.00;99.90
8043;DHT22;4064;48.132;11.366;2023-04-12T03:20:49;5.00;99.90
8043;DHT22;4064;48.132;11.366;2023-04-12T03:23:17;4.90;99.90
8043;DHT22;4064;48.132;11.366;2023-04-12T03:25:43;4.90;99.90
8043;DHT22;4064;48.132;11.366;2023-04-12T03:28:09;4.90;99.90
8043;DHT22;4064;48.132;11.366;2023-04-12T03:30:35;4.90;99.90
8043;DHT22;4064;48.132;11.366;2023-04-12T03:33:01;4.90;99.90
8043;DHT22;4064;48.132;11.366;2023-04-12T03:35:27;4.80;99.90
8043;DHT22;4064;48.132;11.366;2023-04-12T03:37:53;4.80;99.90
8043;DHT22;4064;48.132;11.366;2023-04-12T03:40:20;4.80;99.90
8043;DHT22;4064;48.132;11.366;2023-04-12T03:42:48;4.80;99.90
8043;DHT22;4064;48.132;11.366;2023-04-12T03:45:15;4.80;99.90
8043;DHT22;4064;48.132;11.366;2023-04-12T03:47:43;4.70;99.90
8043;DHT22;4064;48.132;11.366;2023-04-12T03:50:09;4.70;99.90
8043;DHT22;4064;48.132;11.366;2023-04-12T03:52:36;4.70;99.90
8043;DHT22;4064;48.132;11.366;2023-04-12T03:55:03;4.70;99.90
8043;DHT22;4064;48.132;11.366;2023-04-12T03:57:31;4.70;99.90
8043;DHT22;4064;48.132;11.366;2023-04-12T03:59:57;4.70;99.90
8043;DHT22;4064;48.132;11.366;2023-04-12T04:02:23;4.70;99.90
8043;DHT22;4064;48.132;11.366;2023-04-12T04:04:50;4.70;99.90
8043;DHT22;4064;48.132;11.366;2023-04-12T04:07:16;4.70;99.90
8043;DHT22;4064;48.132;11.366;2023-04-12T04:09:42;4.60;99.90
8043;DHT22;4064;48.132;11.366;2023-04-12T04:12:08;4.60;99.90
8043;DHT22;4064;48.132;11.366;2023-04-12T04:14:34;4.60;99.90
8043;DHT22;4064;48.132;11.366;2023-04-12T04:17:01;4.60;99.90
8043;DHT22;4064;48.132;11.366;2023-04-12T04:19:26;4.60;99.90
8043;DHT22;4064;48.132;11.366;2023-04-12T04:21:52;4.60;99.90
8043;DHT22;4064;48.132;11.366;2023-04-12T04:24:21;4.60;99.90
8043;DHT22;4064;48.132;11.366;2023-04-12T04:26:49;4.60;99.90
8043;DHT22;4064;48.132;11.366;2023-04-12T04:29:18;4.60;99.90
8043;DHT22;4064;48.132;11.366;2023-04-12T04:31:45;4.50;99.90
8043;DHT22;4064;48.132;11.366;2023-04-12T04:34:11;4.50;99.90
8043;DHT22;4064;48.132;11.366;2023-04-12T04:36:39;4.50;99.90
8043;DHT22;4064;48.132;11.366;2023-04-12T04:39:06;4.50;99.90
8043;DHT22;4064;48.132;11.366;2023-04-12T04:41:31;4.50;99.90
8043;DHT22;4064;48.132;11.366;2023-04-12T04:44:06;4.50;99.90
8043;DHT22;4064;48.132;11.366;2023-04-12T04:46:36;4.40;99.90
8043;DHT22;4064;48.132;11.366;2023-04-12T04:49:04;4.40;99.90
8043;DHT22;4064;48.132;11.366;2023-04-12T04:51:30;4.40;99.90
8043;DHT22;4064;48.132;11.366;2023-04-12T04:53:57;4.50;99.90
8043;DHT22;4064;48.132;11.366;2023-04-12T04:56:23;4.50;99.90
8043;DHT22;4064;48.132;11.366;2023-04-12T04:58:49;4.50;99.90
8043;DHT22;4064;48.132;11.366;2023-04-12T05:01:15;4.50;99.90
8043;DHT22;4064;48.132;11.366;2023-04-12T05:03:42;4.60;99.90
8043;DHT22;4064;48.132;11.366;2023-04-12T05:06:10;4.60;99.90
8043;DHT22;4064;48.132;11.366;2023-04-12T05:08:36;4.60;99.90
8043;DHT22;4064;48.132;11.366;2023-04-12T05:11:03;4.60;99.90
8043;DHT22;4064;48.132;11.366;2023-04-12T05:13:29;4.60;99.90
8043;DHT22;4064;48.132;11.366;2023-04-12T05:15:54;4.60;99.90
8043;DHT22;4064;48.132;11.366;2023-04-12T05:18:20;4.60;99.90
8043;DHT22;4064;48.132;11.366;2023-04-12T05:20:46;4.60;99.90
8043;DHT22;4064;48.132;11.366;2023-04-12T05:23:14;4.60;99.90
8043;DHT22;4064;48.132;11.366;2023-04-12T05:25:44;4.60;99.90
8043;DHT22;4064;48.132;11.366;2023-04-12T05:28:13;4.70;99.90
8043;DHT22;4064;48.132;11.366;2023-04-12T05:30:39;4.60;99.90
8043;DHT22;4064;48.132;11.366;2023-04-12T05:33:05;4.60;99.90
8043;DHT22;4064;48.132;11.366;2023-04-12T05:35:31;4.70;99.90
8043;DHT22;4064;48.132;11.366;2023-04-12T05:37:57;4.60;99.90
8043;DHT22;4064;48.132;11.366;2023-04-12T05:40:23;4.70;99.90
8043;DHT22;4064;48.132;11.366;2023-04-12T05:42:48;4.60;99.90
8043;DHT22;4064;48.132;11.366;2023-04-12T05:45:14;4.60;99.90
8043;DHT22;4064;48.132;11.366;2023-04-12T05:47:40;4.70;99.90
8043;DHT22;4064;48.132;11.366;2023-04-12T05:50:07;4.70;99.90
8043;DHT22;4064;48.132;11.366;2023-04-12T05:52:33;4.70;99.90
8043;DHT22;4064;48.132;11.366;2023-04-12T05:54:59;4.70;99.90
8043;DHT22;4064;48.132;11.366;2023-04-12T05:57:24;4.70;99.90
8043;DHT22;4064;48.132;11.366;2023-04-12T05:59:50;4.80;99.90
8043;DHT22;4064;48.132;11.366;2023-04-12T06:02:16;4.70;99.90
8043;DHT22;4064;48.132;11.366;2023-04-12T06:04:41;4.80;99.90
8043;DHT22;4064;48.132;11.366;2023-04-12T06:07:08;4.70;99.90
8043;DHT22;4064;48.132;11.366;2023-04-12T06:09:34;4.80;99.90
8043;DHT22;4064;48.132;11.366;2023-04-12T06:12:01;4.90;99.90
8043;DHT22;4064;48.132;11.366;2023-04-12T06:14:27;4.90;99.90
8043;DHT22;4064;48.132;11.366;2023-04-12T06:16:52;5.00;99.90
8043;DHT22;4064;48.132;11.366;2023-04-12T06:19:18;5.00;99.90
8043;DHT22;4064;48.132;11.366;2023-04-12T06:21:44;5.00;99.90
8043;DHT22;4064;48.132;11.366;2023-04-12T06:24:10;5.00;99.90
8043;DHT22;4064;48.132;11.366;2023-04-12T06:26:36;5.00;99.90
8043;DHT22;4064;48.132;11.366;2023-04-12T06:29:02;5.00;99.90
8043;DHT22;4064;48.132;11.366;2023-04-12T06:31:28;5.00;99.90
8043;DHT22;4064;48.132;11.366;2023-04-12T06:33:54;5.10;99.90
8043;DHT22;4064;48.132;11.366;2023-04-12T06:36:20;5.10;99.90
8043;DHT22;4064;48.132;11.366;2023-04-12T06:38:47;5.20;99.90
8043;DHT22;4064;48.132;11.366;2023-04-12T06:41:15;5.30;99.90
8043;DHT22;4064;48.132;11.366;2023-04-12T06:43:41;5.30;99.90
8043;DHT22;4064;48.132;11.366;2023-04-12T06:46:07;5.40;99.90
8043;DHT22;4064;48.132;11.366;2023-04-12T06:48:33;5.40;99.90
8043;DHT22;4064;48.132;11.366;2023-04-12T06:50:59;5.50;99.90
8043;DHT22;4064;48.132;11.366;2023-04-12T06:53:27;5.60;99.90
8043;DHT22;4064;48.132;11.366;2023-04-12T06:55:54;5.60;99.90
8043;DHT22;4064;48.132;11.366;2023-04-12T06:58:20;5.70;99.90
8043;DHT22;4064;48.132;11.366;2023-04-12T07:00:47;5.70;99.90
8043;DHT22;4064;48.132;11.366;2023-04-12T07:03:15;5.80;99.90
8043;DHT22;4064;48.132;11.366;2023-04-12T07:05:41;5.80;99.90
8043;DHT22;4064;48.132;11.366;2023-04-12T07:08:07;5.90;99.90
8043;DHT22;4064;48.132;11.366;2023-04-12T07:10:34;5.90;99.90
8043;DHT22;4064;48.132;11.366;2023-04-12T07:13:00;6.00;99.90
8043;DHT22;4064;48.132;11.366;2023-04-12T07:15:31;6.00;99.90
8043;DHT22;4064;48.132;11.366;2023-04-12T07:17:57;6.00;99.90
8043;DHT22;4064;48.132;11.366;2023-04-12T07:20:23;6.10;99.90
8043;DHT22;4064;48.132;11.366;2023-04-12T07:22:49;6.10;99.90
8043;DHT22;4064;48.132;11.366;2023-04-12T07:25:15;6.20;99.90
8043;DHT22;4064;48.132;11.366;2023-04-12T07:27:41;6.20;99.90
8043;DHT22;4064;48.132;11.366;2023-04-12T07:30:07;6.20;99.90
8043;DHT22;4064;48.132;11.366;2023-04-12T07:32:32;6.30;99.90
8043;DHT22;4064;48.132;11.366;2023-04-12T07:34:58;6.30;99.90
8043;DHT22;4064;48.132;11.366;2023-04-12T07:37:24;6.40;99.90
8043;DHT22;4064;48.132;11.366;2023-04-12T07:39:50;6.50;99.90
8043;DHT22;4064;48.132;11.366;2023-04-12T07:42:16;6.60;99.90
8043;DHT22;4064;48.132;11.366;2023-04-12T07:44:41;6.70;99.90
8043;DHT22;4064;48.132;11.366;2023-04-12T07:47:07;6.90;99.90
8043;DHT22;4064;48.132;11.366;2023-04-12T07:49:33;7.00;99.90
8043;DHT22;4064;48.132;11.366;2023-04-12T07:51:58;7.00;99.90
8043;DHT22;4064;48.132;11.366;2023-04-12T07:54:27;7.00;99.90
8043;DHT22;4064;48.132;11.366;2023-04-12T07:57:01;7.10;99.90
8043;DHT22;4064;48.132;11.366;2023-04-12T07:59:28;7.10;99.90
8043;DHT22;4064;48.132;11.366;2023-04-12T08:01:55;7.10;99.90
8043;DHT22;4064;48.132;11.366;2023-04-12T08:04:21;7.10;99.90
8043;DHT22;4064;48.132;11.366;2023-04-12T08:06:46;7.10;99.90
8043;DHT22;4064;48.132;11.366;2023-04-12T08:09:12;7.10;99.90
8043;DHT22;4064;48.132;11.366;2023-04-12T08:11:38;7.10;99.90
8043;DHT22;4064;48.132;11.366;2023-04-12T08:14:04;7.20;99.90
8043;DHT22;4064;48.132;11.366;2023-04-12T08:16:30;7.10;99.90
8043;DHT22;4064;48.132;11.366;2023-04-12T08:18:57;7.10;99.90
8043;DHT22;4064;48.132;11.366;2023-04-12T08:21:23;7.10;99.90
8043;DHT22;4064;48.132;11.366;2023-04-12T08:23:49;7.10;99.90
8043;DHT22;4064;48.132;11.366;2023-04-12T08:26:16;7.10;99.90
8043;DHT22;4064;48.132;11.366;2023-04-12T08:28:42;7.10;99.90
8043;DHT22;4064;48.132;11.366;2023-04-12T08:31:08;7.20;99.90
8043;DHT22;4064;48.132;11.366;2023-04-12T08:33:34;7.20;99.90
8043;DHT22;4064;48.132;11.366;2023-04-12T08:36:00;7.30;99.90
8043;DHT22;4064;48.132;11.366;2023-04-12T08:38:26;7.40;99.90
8043;DHT22;4064;48.132;11.366;2023-04-12T08:40:52;7.40;99.90
8043;DHT22;4064;48.132;11.366;2023-04-12T08:43:18;7.40;99.90
8043;DHT22;4064;48.132;11.366;2023-04-12T08:45:47;7.50;99.90
8043;DHT22;4064;48.132;11.366;2023-04-12T08:48:14;7.50;99.90
8043;DHT22;4064;48.132;11.366;2023-04-12T08:50:43;7.50;99.90
8043;DHT22;4064;48.132;11.366;2023-04-12T08:53:11;7.40;99.90
8043;DHT22;4064;48.132;11.366;2023-04-12T08:55:37;7.50;99.90
8043;DHT22;4064;48.132;11.366;2023-04-12T08:58:03;7.60;99.90
8043;DHT22;4064;48.132;11.366;2023-04-12T09:00:33;7.70;99.90
8043;DHT22;4064;48.132;11.366;2023-04-12T09:02:59;7.90;99.90
8043;DHT22;4064;48.132;11.366;2023-04-12T09:05:29;8.00;99.90
8043;DHT22;4064;48.132;11.366;2023-04-12T09:07:56;8.10;99.90
8043;DHT22;4064;48.132;11.366;2023-04-12T09:10:35;8.20;99.90
8043;DHT22;4064;48.132;11.366;2023-04-12T09:13:03;8.30;99.90
8043;DHT22;4064;48.132;11.366;2023-04-12T09:15:29;8.60;99.90
8043;DHT22;4064;48.132;11.366;2023-04-12T09:18:11;8.70;99.90
8043;DHT22;4064;48.132;11.366;2023-04-12T09:20:38;8.90;99.90
8043;DHT22;4064;48.132;11.366;2023-04-12T09:23:34;9.00;99.90
8043;DHT22;4064;48.132;11.366;2023-04-12T09:26:03;9.20;99.90
8043;DHT22;4064;48.132;11.366;2023-04-12T09:28:31;9.40;99.90
8043;DHT22;4064;48.132;11.366;2023-04-12T09:30:59;9.60;99.90
8043;DHT22;4064;48.132;11.366;2023-04-12T09:33:32;9.90;99.90
8043;DHT22;4064;48.132;11.366;2023-04-12T09:36:00;10.30;99.90
8043;DHT22;4064;48.132;11.366;2023-04-12T09:38:32;10.60;99.90
8043;DHT22;4064;48.132;11.366;2023-04-12T09:41:17;10.60;99.90
8043;DHT22;4064;48.132;11.366;2023-04-12T09:43:44;10.50;99.90
8043;DHT22;4064;48.132;11.366;2023-04-12T09:46:12;10.50;99.90
8043;DHT22;4064;48.132;11.366;2023-04-12T09:48:39;10.70;99.90
8043;DHT22;4064;48.132;11.366;2023-04-12T09:51:06;10.90;99.90
8043;DHT22;4064;48.132;11.366;2023-04-12T09:53:38;11.00;99.90
8043;DHT22;4064;48.132;11.366;2023-04-12T09:56:06;11.40;99.90
8043;DHT22;4064;48.132;11.366;2023-04-12T09:58:35;12.00;99.90
8043;DHT22;4064;48.132;11.366;2023-04-12T10:01:02;12.50;99.90
8043;DHT22;4064;48.132;11.366;2023-04-12T10:03:29;13.00;99.90
8043;DHT22;4064;48.132;11.366;2023-04-12T10:05:55;13.20;99.90
8043;DHT22;4064;48.132;11.366;2023-04-12T10:08:22;13.10;99.90
8043;DHT22;4064;48.132;11.366;2023-04-12T10:10:49;13.10;99.90
8043;DHT22;4064;48.132;11.366;2023-04-12T10:13:16;13.30;99.90
8043;DHT22;4064;48.132;11.366;2023-04-12T10:15:45;13.50;99.90
8043;DHT22;4064;48.132;11.366;2023-04-12T10:18:15;14.10;99.90
8043;DHT22;4064;48.132;11.366;2023-04-12T10:20:46;14.60;99.90
8043;DHT22;4064;48.132;11.366;2023-04-12T10:23:12;15.10;99.90
8043;DHT22;4064;48.132;11.366;2023-04-12T10:25:39;15.50;99.90
8043;DHT22;4064;48.132;11.366;2023-04-12T10:28:18;15.80;99.90
8043;DHT22;4064;48.132;11.366;2023-04-12T10:30:46;16.20;99.90
8043;DHT22;4064;48.132;11.366;2023-04-12T10:33:24;16.50;99.90
8043;DHT22;4064;48.132;11.366;2023-04-12T10:36:07;16.90;99.90
8043;DHT22;4064;48.132;11.366;2023-04-12T10:38:46;17.00;99.30
8043;DHT22;4064;48.132;11.366;2023-04-12T10:41:19;16.80;97.30
8043;DHT22;4064;48.132;11.366;2023-04-12T10:47:03;16.50;97.60
8043;DHT22;4064;48.132;11.366;2023-04-12T10:49:30;16.50;97.30
8043;DHT22;4064;48.132;11.366;2023-04-12T10:56:54;15.70;96.70
8043;DHT22;4064;48.132;11.366;2023-04-12T10:59:20;15.30;95.70
8043;DHT22;4064;48.132;11.366;2023-04-12T11:02:08;14.80;97.50
8043;DHT22;4064;48.132;11.366;2023-04-12T11:04:37;14.70;98.30
8043;DHT22;4064;48.132;11.366;2023-04-12T11:07:41;14.80;99.10
8043;DHT22;4064;48.132;11.366;2023-04-12T11:10:14;14.70;98.20
8043;DHT22;4064;48.132;11.366;2023-04-12T11:12:41;14.40;97.70
8043;DHT22;4064;48.132;11.366;2023-04-12T11:15:12;14.30;99.20
8043;DHT22;4064;48.132;11.366;2023-04-12T11:17:38;14.30;99.00
8043;DHT22;4064;48.132;11.366;2023-04-12T11:20:11;14.30;98.70
8043;DHT22;4064;48.132;11.366;2023-04-12T11:22:37;14.40;99.10
8043;DHT22;4064;48.132;11.366;2023-04-12T11:25:05;14.50;99.10
8043;DHT22;4064;48.132;11.366;2023-04-12T11:27:32;14.50;98.90
8043;DHT22;4064;48.132;11.366;2023-04-12T11:29:59;14.40;97.70
8043;DHT22;4064;48.132;11.366;2023-04-12T11:32:27;14.40;98.40
8043;DHT22;4064;48.132;11.366;2023-04-12T11:34:55;14.30;98.70
8043;DHT22;4064;48.132;11.366;2023-04-12T11:37:22;14.20;98.10
8043;DHT22;4064;48.132;11.366;2023-04-12T11:39:51;14.20;97.80
8043;DHT22;4064;48.132;11.366;2023-04-12T11:42:19;14.20;97.30
8043;DHT22;4064;48.132;11.366;2023-04-12T11:44:46;14.20;97.40
8043;DHT22;4064;48.132;11.366;2023-04-12T11:47:36;14.40;98.10
8043;DHT22;4064;48.132;11.366;2023-04-12T11:50:07;14.50;98.00
8043;DHT22;4064;48.132;11.366;2023-04-12T11:52:33;14.50;97.50
8043;DHT22;4064;48.132;11.366;2023-04-12T11:55:05;14.40;97.00
8043;DHT22;4064;48.132;11.366;2023-04-12T11:57:33;14.20;97.00
8043;DHT22;4064;48.132;11.366;2023-04-12T12:00:00;14.20;98.00
8043;DHT22;4064;48.132;11.366;2023-04-12T12:02:26;14.40;98.40
8043;DHT22;4064;48.132;11.366;2023-04-12T12:04:53;14.50;98.00
8043;DHT22;4064;48.132;11.366;2023-04-12T12:07:21;14.70;98.10
8043;DHT22;4064;48.132;11.366;2023-04-12T12:09:48;14.80;97.60
8043;DHT22;4064;48.132;11.366;2023-04-12T12:12:15;14.80;97.70
8043;DHT22;4064;48.132;11.366;2023-04-12T12:14:43;14.90;97.70
8043;DHT22;4064;48.132;11.366;2023-04-12T12:17:13;14.90;97.10
8043;DHT22;4064;48.132;11.366;2023-04-12T12:19:41;14.90;96.70
8043;DHT22;4064;48.132;11.366;2023-04-12T12:22:21;14.90;96.50
8043;DHT22;4064;48.132;11.366;2023-04-12T12:24:55;14.90;95.50
8043;DHT22;4064;48.132;11.366;2023-04-12T12:27:37;14.80;95.40
8043;DHT22;4064;48.132;11.366;2023-04-12T12:30:08;14.80;95.30
8043;DHT22;4064;48.132;11.366;2023-04-12T12:32:38;14.70;95.20
8043;DHT22;4064;48.132;11.366;2023-04-12T12:35:09;14.70;94.90
8043;DHT22;4064;48.132;11.366;2023-04-12T12:37:35;14.80;95.10
8043;DHT22;4064;48.132;11.366;2023-04-12T12:40:09;14.90;94.80
8043;DHT22;4064;48.132;11.366;2023-04-12T12:42:55;15.00;94.50
8043;DHT22;4064;48.132;11.366;2023-04-12T12:45:26;15.10;93.60
8043;DHT22;4064;48.132;11.366;2023-04-12T12:47:58;15.10;92.90
8043;DHT22;4064;48.132;11.366;2023-04-12T12:50:32;15.00;93.10
8043;DHT22;4064;48.132;11.366;2023-04-12T12:52:59;15.00;93.40
8043;DHT22;4064;48.132;11.366;2023-04-12T12:55:26;15.10;93.40
8043;DHT22;4064;48.132;11.366;2023-04-12T12:57:53;15.20;93.20
8043;DHT22;4064;48.132;11.366;2023-04-12T13:00:23;15.40;93.70
8043;DHT22;4064;48.132;11.366;2023-04-12T13:02:50;15.50;93.40
8043;DHT22;4064;48.132;11.366;2023-04-12T13:05:17;15.50;93.50
8043;DHT22;4064;48.132;11.366;2023-04-12T13:07:44;15.70;93.20
8043;DHT22;4064;48.132;11.366;2023-04-12T13:10:10;15.50;92.50
8043;DHT22;4064;48.132;11.366;2023-04-12T13:12:36;15.40;92.70
8043;DHT22;4064;48.132;11.366;2023-04-12T13:15:02;15.30;92.50
8043;DHT22;4064;48.132;11.366;2023-04-12T13:17:29;15.30;93.10
8043;DHT22;4064;48.132;11.366;2023-04-12T13:19:56;15.30;92.50
8043;DHT22;4064;48.132;11.366;2023-04-12T13:22:23;15.30;92.30
8043;DHT22;4064;48.132;11.366;2023-04-12T13:24:49;15.10;92.10
8043;DHT22;4064;48.132;11.366;2023-04-12T13:27:16;15.00;91.90
8043;DHT22;4064;48.132;11.366;2023-04-12T13:29:42;14.80;92.10
8043;DHT22;4064;48.132;11.366;2023-04-12T13:32:08;14.60;91.90
8043;DHT22;4064;48.132;11.366;2023-04-12T13:34:35;14.40;92.20
8043;DHT22;4064;48.132;11.366;2023-04-12T13:37:01;14.20;92.50
8043;DHT22;4064;48.132;11.366;2023-04-12T13:39:27;14.10;92.90
8043;DHT22;4064;48.132;11.366;2023-04-12T13:41:53;14.00;93.10
8043;DHT22;4064;48.132;11.366;2023-04-12T13:44:19;13.80;93.80
8043;DHT22;4064;48.132;11.366;2023-04-12T13:46:45;13.70;94.30
8043;DHT22;4064;48.132;11.366;2023-04-12T13:49:10;13.70;95.00
8043;DHT22;4064;48.132;11.366;2023-04-12T13:51:37;13.60;94.60
8043;DHT22;4064;48.132;11.366;2023-04-12T13:54:03;13.70;95.10
8043;DHT22;4064;48.132;11.366;2023-04-12T13:56:29;13.80;95.00
8043;DHT22;4064;48.132;11.366;2023-04-12T13:58:55;14.00;95.00
8043;DHT22;4064;48.132;11.366;2023-04-12T14:01:22;14.20;94.50
8043;DHT22;4064;48.132;11.366;2023-04-12T14:03:50;14.70;94.70
8043;DHT22;4064;48.132;11.366;2023-04-12T14:06:18;15.10;94.70
8043;DHT22;4064;48.132;11.366;2023-04-12T14:08:46;15.60;94.40
8043;DHT22;4064;48.132;11.366;2023-04-12T14:11:12;15.80;92.60
8043;DHT22;4064;48.132;11.366;2023-04-12T14:13:38;15.70;92.10
8043;DHT22;4064;48.132;11.366;2023-04-12T14:16:04;15.80;92.50
8043;DHT22;4064;48.132;11.366;2023-04-12T14:18:32;16.00;91.60
8043;DHT22;4064;48.132;11.366;2023-04-12T14:20:58;16.00;90.20
8043;DHT22;4064;48.132;11.366;2023-04-12T14:23:24;16.10;87.20
8043;DHT22;4064;48.132;11.366;2023-04-12T14:25:51;16.10;86.60
8043;DHT22;4064;48.132;11.366;2023-04-12T14:28:18;16.00;87.60
8043;DHT22;4064;48.132;11.366;2023-04-12T14:30:49;16.00;86.40
8043;DHT22;4064;48.132;11.366;2023-04-12T14:33:16;15.90;86.60
8043;DHT22;4064;48.132;11.366;2023-04-12T14:35:43;15.80;86.20
8043;DHT22;4064;48.132;11.366;2023-04-12T14:38:09;15.80;86.30
8043;DHT22;4064;48.132;11.366;2023-04-12T14:40:35;15.70;84.70
8043;DHT22;4064;48.132;11.366;2023-04-12T14:43:01;15.60;85.40
8043;DHT22;4064;48.132;11.366;2023-04-12T14:45:26;15.50;85.60
8043;DHT22;4064;48.132;11.366;2023-04-12T14:47:53;15.40;85.10
8043;DHT22;4064;48.132;11.366;2023-04-12T14:50:19;15.30;85.10
8043;DHT22;4064;48.132;11.366;2023-04-12T14:52:45;15.10;85.00
8043;DHT22;4064;48.132;11.366;2023-04-12T14:55:11;15.00;84.90
8043;DHT22;4064;48.132;11.366;2023-04-12T14:57:38;14.80;85.40
8043;DHT22;4064;48.132;11.366;2023-04-12T15:00:05;14.80;86.60
8043;DHT22;4064;48.132;11.366;2023-04-12T15:02:57;14.60;86.90
8043;DHT22;4064;48.132;11.366;2023-04-12T15:05:25;14.40;87.30
8043;DHT22;4064;48.132;11.366;2023-04-12T15:07:55;14.30;88.00
8043;DHT22;4064;48.132;11.366;2023-04-12T15:10:22;14.30;89.30
8043;DHT22;4064;48.132;11.366;2023-04-12T15:12:48;14.20;89.00
8043;DHT22;4064;48.132;11.366;2023-04-12T15:15:14;14.10;88.50
8043;DHT22;4064;48.132;11.366;2023-04-12T15:17:40;14.10;87.90
8043;DHT22;4064;48.132;11.366;2023-04-12T15:20:06;14.10;88.70
8043;DHT22;4064;48.132;11.366;2023-04-12T15:22:35;14.00;88.00
8043;DHT22;4064;48.132;11.366;2023-04-12T15:25:02;13.90;88.10
8043;DHT22;4064;48.132;11.366;2023-04-12T15:27:29;13.90;88.00
8043;DHT22;4064;48.132;11.366;2023-04-12T15:29:59;13.90;87.60
8043;DHT22;4064;48.132;11.366;2023-04-12T15:32:27;13.80;87.60
8043;DHT22;4064;48.132;11.366;2023-04-12T15:34:54;13.80;87.50
8043;DHT22;4064;48.132;11.366;2023-04-12T15:37:21;13.70;87.30
8043;DHT22;4064;48.132;11.366;2023-04-12T15:39:47;13.60;87.50
8043;DHT22;4064;48.132;11.366;2023-04-12T15:42:14;13.50;87.20
8043;DHT22;4064;48.132;11.366;2023-04-12T15:44:41;13.50;87.60
8043;DHT22;4064;48.132;11.366;2023-04-12T15:47:07;13.40;88.00
8043;DHT22;4064;48.132;11.366;2023-04-12T15:49:33;13.40;88.40
8043;DHT22;4064;48.132;11.366;2023-04-12T15:51:59;13.30;88.20
8043;DHT22;4064;48.132;11.366;2023-04-12T15:54:25;13.30;89.00
8043;DHT22;4064;48.132;11.366;2023-04-12T15:56:51;13.30;88.30
8043;DHT22;4064;48.132;11.366;2023-04-12T15:59:17;13.40;88.20
8043;DHT22;4064;48.132;11.366;2023-04-12T16:01:43;13.30;87.70
8043;DHT22;4064;48.132;11.366;2023-04-12T16:04:09;13.30;88.30
8043;DHT22;4064;48.132;11.366;2023-04-12T16:06:35;13.30;88.00
8043;DHT22;4064;48.132;11.366;2023-04-12T16:09:02;13.30;88.70
8043;DHT22;4064;48.132;11.366;2023-04-12T16:11:29;13.30;89.00
8043;DHT22;4064;48.132;11.366;2023-04-12T16:13:58;13.30;89.50
8043;DHT22;4064;48.132;11.366;2023-04-12T16:16:25;13.30;89.70